Time;durP1;ratioP1;P1;durP2;ratioP2;P2;SDS_P1;SDS_P2;PMS_P1;PMS_P2;Temp;Humidity;BMP_temperature;BMP_pressure;BME280_temperature;BME280_humidity;BME280_pressure;Samples;Min_cycle;Max_cycle;Signal;HPM_P1;HPM_P2
2022/10/01 00:01:01;;;;;;;16.02;14.93;;;;;;;;;;10230814;28;20124;-70
2022/10/01 00:06:02;;;;;;;16.50;15.18;;;;;;;;;;10228147;28;20065;-70
2022/10/01 00:11:00;;;;;;;16.75;15.43;;;;;;;;;;10228811;28;20046;-69
2022/10/01 00:15:58;;;;;;;17.25;16.00;;;;;;;;;;10230270;28;20046;-70
2022/10/01 00:20:54;;;;;;;17.73;16.17;;;;;;;;;;10220353;28;20046;-70
2022/10/01 00:25:52;;;;;;;16.58;15.45;;;;;;;;;;10225457;28;20521;-70
2022/10/01 00:30:48;;;;;;;16.67;15.38;;;;;;;;;;10232190;28;20095;-72
2022/10/01 00:35:44;;;;;;;16.00;14.82;;;;;;;;;;10233273;28;20037;-70
2022/10/01 00:40:41;;;;;;;12.07;11.38;;;;;;;;;;10225309;28;20048;-69
2022/10/01 00:45:37;;;;;;;17.48;15.35;;;;;;;;;;10234251;28;20053;-69
2022/10/01 00:50:33;;;;;;;15.48;14.38;;;;;;;;;;10229814;28;20095;-68
2022/10/01 00:55:35;;;;;;;15.52;14.30;;;;;;;;;;10229241;28;20045;-70
2022/10/01 01:00:32;;;;;;;15.00;13.97;;;;;;;;;;10224961;28;20079;-71
2022/10/01 01:05:28;;;;;;;15.75;14.43;;;;;;;;;;10227174;28;20049;-73
2022/10/01 01:10:36;;;;;;;14.52;13.43;;;;;;;;;;10230363;28;20056;-73
2022/10/01 01:15:36;;;;;;;14.70;13.52;;;;;;;;;;10225527;28;20046;-73
2022/10/01 01:20:48;;;;;;;13.85;12.95;;;;;;;;;;10226134;28;20038;-70
2022/10/01 01:25:44;;;;;;;14.00;13.00;;;;;;;;;;10229979;28;20060;-71
2022/10/01 01:30:41;;;;;;;13.30;12.27;;;;;;;;;;10226586;28;20064;-71
2022/10/01 01:35:44;;;;;;;12.98;12.07;;;;;;;;;;10228128;28;20728;-71
2022/10/01 01:40:42;;;;;;;12.27;11.38;;;;;;;;;;10223594;28;20049;-71
2022/10/01 01:45:38;;;;;;;12.70;11.70;;;;;;;;;;10236176;28;20049;-70
2022/10/01 01:50:48;;;;;;;12.23;11.15;;;;;;;;;;10231106;28;20064;-69
2022/10/01 01:55:48;;;;;;;16.48;10.85;;;;;;;;;;10226807;28;20462;-69
2022/10/01 02:00:46;;;;;;;12.02;11.18;;;;;;;;;;10225623;28;20045;-68
2022/10/01 02:05:54;;;;;;;12.20;11.30;;;;;;;;;;10229884;28;20400;-68
2022/10/01 02:11:01;;;;;;;11.07;10.27;;;;;;;;;;10221341;28;20049;-68
2022/10/01 02:16:09;;;;;;;11.60;10.70;;;;;;;;;;10228346;28;20426;-72
2022/10/01 02:21:19;;;;;;;13.27;10.48;;;;;;;;;;10226144;28;20064;-73
2022/10/01 02:26:17;;;;;;;11.32;10.43;;;;;;;;;;10228609;28;20052;-69
2022/10/01 02:31:14;;;;;;;11.43;10.48;;;;;;;;;;10227280;28;20518;-69
2022/10/01 02:36:12;;;;;;;11.60;10.48;;;;;;;;;;10237317;28;20095;-67
2022/10/01 02:41:10;;;;;;;10.90;9.88;;;;;;;;;;10236435;28;20419;-67
2022/10/01 02:46:14;;;;;;;13.82;10.27;;;;;;;;;;10238323;28;20049;-70
2022/10/01 02:51:21;;;;;;;12.23;11.23;;;;;;;;;;10228460;28;20137;-70
2022/10/01 02:57:21;;;;;;;11.40;10.65;;;;;;;;;;10237166;28;20072;-70
2022/10/01 03:01:43;;;;;;;11.45;10.30;;;;;;;;;;10234383;28;20124;-70
2022/10/01 03:06:40;;;;;;;12.05;11.05;;;;;;;;;;10240849;28;20472;-69
2022/10/01 03:11:37;;;;;;;11.77;10.88;;;;;;;;;;10237156;28;20048;-71
2022/10/01 03:16:33;;;;;;;11.80;10.75;;;;;;;;;;10225543;28;20571;-71
2022/10/01 03:21:29;;;;;;;11.65;10.80;;;;;;;;;;10238157;28;20050;-71
2022/10/01 03:26:26;;;;;;;11.82;10.82;;;;;;;;;;10236184;28;20099;-68
2022/10/01 03:31:22;;;;;;;11.52;10.65;;;;;;;;;;10236099;28;20094;-68
2022/10/01 03:36:19;;;;;;;11.95;10.85;;;;;;;;;;10232006;28;20511;-70
2022/10/01 03:41:15;;;;;;;11.82;10.82;;;;;;;;;;10230567;28;20053;-70
2022/10/01 03:46:11;;;;;;;11.63;10.73;;;;;;;;;;10229416;28;20041;-68
2022/10/01 03:51:07;;;;;;;11.13;10.10;;;;;;;;;;10232957;28;20091;-68
2022/10/01 03:56:04;;;;;;;10.98;10.13;;;;;;;;;;10232826;28;20045;-69
2022/10/01 04:01:01;;;;;;;11.10;10.30;;;;;;;;;;10226405;28;20053;-69
2022/10/01 04:05:57;;;;;;;12.52;11.02;;;;;;;;;;10230574;28;20045;-69
2022/10/01 04:10:53;;;;;;;14.23;12.88;;;;;;;;;;10224897;28;20052;-68
2022/10/01 04:15:49;;;;;;;13.02;11.90;;;;;;;;;;10224388;28;20052;-68
2022/10/01 04:20:46;;;;;;;14.15;13.05;;;;;;;;;;10226700;28;20049;-71
2022/10/01 04:25:42;;;;;;;15.07;14.07;;;;;;;;;;10232163;28;20046;-73
2022/10/01 04:30:39;;;;;;;16.25;15.15;;;;;;;;;;10223422;28;20041;-72
2022/10/01 04:35:35;;;;;;;19.27;17.90;;;;;;;;;;10233763;28;20041;-69
2022/10/01 04:40:33;;;;;;;19.13;17.92;;;;;;;;;;10229516;28;20619;-69
2022/10/01 04:45:29;;;;;;;21.45;20.15;;;;;;;;;;10232876;28;20046;-69
2022/10/01 04:50:26;;;;;;;20.75;19.23;;;;;;;;;;10224567;28;20707;-71
2022/10/01 04:55:22;;;;;;;22.45;21.13;;;;;;;;;;10231271;28;20740;-72
2022/10/01 05:00:20;;;;;;;26.08;24.42;;;;;;;;;;10231651;28;20057;-71
2022/10/01 05:05:17;;;;;;;25.67;24.02;;;;;;;;;;10230098;28;20045;-69
2022/10/01 05:10:16;;;;;;;28.23;26.42;;;;;;;;;;10224294;28;20400;-68
2022/10/01 05:15:13;;;;;;;29.40;27.65;;;;;;;;;;10231523;28;20056;-69
2022/10/01 05:20:14;;;;;;;29.67;27.98;;;;;;;;;;10234405;28;20391;-68
2022/10/01 05:25:10;;;;;;;31.63;29.73;;;;;;;;;;10228749;28;20042;-70
2022/10/01 05:30:08;;;;;;;36.55;34.25;;;;;;;;;;10232701;28;20071;-70
2022/10/01 05:35:05;;;;;;;37.28;35.13;;;;;;;;;;10227105;28;20045;-70
2022/10/01 05:40:02;;;;;;;43.20;40.65;;;;;;;;;;10235897;28;20068;-68
2022/10/01 05:44:58;;;;;;;46.17;43.58;;;;;;;;;;10226980;28;20045;-69
2022/10/01 05:49:55;;;;;;;51.10;47.97;;;;;;;;;;10228942;28;20419;-69
2022/10/01 05:54:51;;;;;;;52.38;49.58;;;;;;;;;;10227110;28;20045;-72
2022/10/01 05:59:47;;;;;;;65.93;62.40;;;;;;;;;;10227088;28;20041;-69
2022/10/01 06:04:43;;;;;;;68.22;64.53;;;;;;;;;;10223736;28;20041;-72
2022/10/01 06:09:40;;;;;;;75.95;71.97;;;;;;;;;;10225208;28;20053;-71
2022/10/01 06:14:36;;;;;;;80.88;76.40;;;;;;;;;;10237013;28;20045;-70
2022/10/01 06:19:32;;;;;;;85.60;80.90;;;;;;;;;;10233631;28;20040;-70
2022/10/01 06:24:29;;;;;;;90.93;86.03;;;;;;;;;;10239483;28;20117;-68
2022/10/01 06:29:26;;;;;;;91.15;85.93;;;;;;;;;;10238283;28;20053;-68
2022/10/01 06:34:22;;;;;;;94.90;89.70;;;;;;;;;;10237223;28;20045;-69
2022/10/01 06:39:18;;;;;;;100.65;95.20;;;;;;;;;;10235153;28;20041;-69
2022/10/01 06:44:14;;;;;;;103.05;97.55;;;;;;;;;;10242504;28;20503;-72
2022/10/01 06:49:12;;;;;;;106.40;100.43;;;;;;;;;;10235986;28;20046;-72
2022/10/01 06:54:09;;;;;;;104.72;98.88;;;;;;;;;;10226426;28;20041;-72
2022/10/01 06:59:05;;;;;;;107.30;101.45;;;;;;;;;;10236518;28;20044;-70
2022/10/01 07:04:01;;;;;;;115.40;108.90;;;;;;;;;;10229612;28;20037;-70
2022/10/01 07:08:58;;;;;;;108.47;102.40;;;;;;;;;;10231227;28;20080;-70
2022/10/01 07:13:56;;;;;;;108.50;102.53;;;;;;;;;;10237493;28;20154;-70
2022/10/01 07:18:52;;;;;;;110.05;104.00;;;;;;;;;;10238800;28;20037;-70
2022/10/01 07:23:48;;;;;;;109.43;103.40;;;;;;;;;;10250531;28;20049;-70
2022/10/01 07:28:45;;;;;;;105.78;99.93;;;;;;;;;;10245453;28;20047;-68
2022/10/01 07:33:41;;;;;;;105.50;99.55;;;;;;;;;;10245972;28;20499;-68
2022/10/01 07:38:38;;;;;;;109.63;103.50;;;;;;;;;;10246932;28;20045;-68
2022/10/01 07:43:35;;;;;;;107.25;100.93;;;;;;;;;;10242319;28;20044;-68
2022/10/01 07:48:31;;;;;;;108.95;102.78;;;;;;;;;;10241981;28;20041;-68
2022/10/01 07:53:27;;;;;;;104.25;98.25;;;;;;;;;;10246139;28;20037;-68
2022/10/01 07:58:24;;;;;;;109.65;103.20;;;;;;;;;;10241470;28;20041;-67
2022/10/01 08:03:20;;;;;;;113.35;106.75;;;;;;;;;;10221596;28;20427;-68
2022/10/01 08:08:16;;;;;;;115.15;108.30;;;;;;;;;;10205639;28;20057;-68
2022/10/01 08:13:13;;;;;;;114.13;107.43;;;;;;;;;;10205337;28;20053;-68
2022/10/01 08:18:10;;;;;;;115.65;108.85;;;;;;;;;;10210023;28;20665;-69
2022/10/01 08:23:16;;;;;;;112.00;105.40;;;;;;;;;;10209998;28;20053;-70
2022/10/01 08:28:12;;;;;;;117.05;110.35;;;;;;;;;;10203456;28;20538;-69
2022/10/01 08:33:10;;;;;;;113.32;106.72;;;;;;;;;;10211743;28;20048;-70
2022/10/01 08:38:06;;;;;;;112.32;105.72;;;;;;;;;;10222631;28;20546;-70
2022/10/01 08:43:05;;;;;;;105.70;99.45;;;;;;;;;;10215036;28;20037;-70
2022/10/01 08:48:04;;;;;;;106.70;100.38;;;;;;;;;;10211227;28;20046;-70
2022/10/01 08:53:02;;;;;;;105.70;99.45;;;;;;;;;;10216525;28;20053;-70
2022/10/01 08:58:01;;;;;;;103.55;97.35;;;;;;;;;;10224682;28;20659;-70
2022/10/01 09:02:59;;;;;;;99.72;93.63;;;;;;;;;;10220315;28;20044;-70
2022/10/01 09:08:15;;;;;;;99.43;93.32;;;;;;;;;;10230729;28;20496;-69
2022/10/01 09:13:30;;;;;;;95.93;90.03;;;;;;;;;;10232515;28;20511;-68
2022/10/01 09:18:40;;;;;;;98.80;92.72;;;;;;;;;;10216500;28;20041;-69
2022/10/01 09:23:43;;;;;;;100.88;94.53;;;;;;;;;;10210752;28;20041;-69
2022/10/01 09:28:40;;;;;;;102.60;96.32;;;;;;;;;;10232038;28;20045;-71
2022/10/01 09:33:38;;;;;;;98.88;92.78;;;;;;;;;;10237264;28;20341;-71
2022/10/01 09:38:40;;;;;;;97.75;91.57;;;;;;;;;;10227487;28;20048;-72
2022/10/01 09:43:37;;;;;;;92.60;86.90;;;;;;;;;;10228988;28;20033;-72
2022/10/01 09:48:55;;;;;;;91.95;86.15;;;;;;;;;;10220659;28;20049;-72
2022/10/01 09:53:51;;;;;;;85.65;80.25;;;;;;;;;;10228714;28;20046;-72
2022/10/01 09:58:51;;;;;;;91.95;86.07;;;;;;;;;;10230001;28;20061;-71
2022/10/01 10:03:55;;;;;;;90.95;84.97;;;;;;;;;;10220729;28;20070;-71
2022/10/01 10:08:52;;;;;;;89.60;83.60;;;;;;;;;;10226102;28;20503;-72
2022/10/01 10:13:50;;;;;;;95.57;89.20;;;;;;;;;;10228038;28;20052;-70
2022/10/01 10:18:50;;;;;;;94.18;88.18;;;;;;;;;;10228757;28;20124;-70
2022/10/01 10:23:54;;;;;;;92.65;86.63;;;;;;;;;;10238759;28;20052;-70
2022/10/01 10:28:51;;;;;;;92.15;86.30;;;;;;;;;;10238812;28;20144;-70
2022/10/01 10:33:50;;;;;;;96.20;89.95;;;;;;;;;;10238552;28;20044;-71
2022/10/01 10:38:48;;;;;;;101.90;95.45;;;;;;;;;;10234021;28;20055;-70
2022/10/01 10:43:47;;;;;;;104.18;97.50;;;;;;;;;;10232256;28;20415;-70
2022/10/01 10:48:44;;;;;;;109.20;102.40;;;;;;;;;;10221315;28;20427;-70
2022/10/01 10:53:42;;;;;;;116.32;109.05;;;;;;;;;;10234257;28;20045;-70
2022/10/01 10:58:41;;;;;;;117.05;109.55;;;;;;;;;;10234525;28;20041;-70
2022/10/01 11:03:42;;;;;;;122.97;115.47;;;;;;;;;;10235952;28;20052;-70
2022/10/01 11:08:39;;;;;;;119.70;112.40;;;;;;;;;;10235261;28;20434;-70
2022/10/01 11:13:44;;;;;;;132.73;124.22;;;;;;;;;;10246203;28;20041;-71
2022/10/01 11:18:55;;;;;;;120.57;113.78;;;;;;;;;;10229303;28;20423;-71
2022/10/01 11:24:03;;;;;;;113.38;106.88;;;;;;;;;;10231795;28;20045;-69
2022/10/01 11:29:06;;;;;;;103.85;98.20;;;;;;;;;;10242473;28;20053;-69
2022/10/01 11:34:03;;;;;;;103.28;97.72;;;;;;;;;;10251428;28;20397;-70
2022/10/01 11:39:01;;;;;;;85.10;80.38;;;;;;;;;;10244997;28;20056;-69
2022/10/01 11:44:13;;;;;;;75.47;71.35;;;;;;;;;;10234177;28;20040;-71
2022/10/01 11:49:25;;;;;;;70.57;66.68;;;;;;;;;;10237847;28;20422;-71
2022/10/01 11:54:24;;;;;;;42.95;40.35;;;;;;;;;;10235711;28;20503;-71
2022/10/01 11:59:28;;;;;;;41.78;39.17;;;;;;;;;;10239559;28;20097;-72
2022/10/01 12:04:27;;;;;;;48.45;45.33;;;;;;;;;;10236685;28;20045;-73
2022/10/01 12:09:32;;;;;;;49.00;46.05;;;;;;;;;;10234240;28;20061;-72
2022/10/01 12:14:58;;;;;;;47.72;44.78;;;;;;;;;;10225411;28;20046;-72
2022/10/01 12:20:03;;;;;;;44.70;42.13;;;;;;;;;;10221361;28;20099;-71
2022/10/01 12:24:59;;;;;;;33.97;31.15;;;;;;;;;;10212877;28;20388;-72
2022/10/01 12:30:03;;;;;;;21.42;19.83;;;;;;;;;;10216363;28;20042;-72
2022/10/01 12:35:19;;;;;;;14.95;13.63;;;;;;;;;;10267056;28;20517;-73
2022/10/01 12:40:15;;;;;;;13.32;11.95;;;;;;;;;;10272667;28;20049;-72
2022/10/01 12:45:26;;;;;;;13.43;12.50;;;;;;;;;;10261403;28;20398;-71
2022/10/01 12:50:35;;;;;;;14.80;13.60;;;;;;;;;;10262462;28;20056;-72
2022/10/01 12:55:38;;;;;;;12.38;11.45;;;;;;;;;;10275328;28;20038;-71
2022/10/01 13:00:39;;;;;;;17.77;16.05;;;;;;;;;;10286253;28;20053;-71
2022/10/01 13:05:50;;;;;;;15.13;13.90;;;;;;;;;;10276993;28;20064;-72
2022/10/01 13:10:52;;;;;;;15.23;13.65;;;;;;;;;;10272316;28;20044;-72
2022/10/01 13:16:04;;;;;;;13.60;12.38;;;;;;;;;;10270562;28;20049;-73
2022/10/01 13:21:13;;;;;;;15.13;13.80;;;;;;;;;;10271431;28;20048;-74
2022/10/01 13:26:19;;;;;;;17.48;16.20;;;;;;;;;;10271625;28;20045;-73
2022/10/01 13:31:18;;;;;;;26.88;25.27;;;;;;;;;;10268392;28;20502;-73
2022/10/01 13:36:18;;;;;;;40.83;38.55;;;;;;;;;;10264207;28;20399;-73
2022/10/01 13:41:17;;;;;;;60.72;57.13;;;;;;;;;;10276953;28;20052;-72
2022/10/01 13:46:13;;;;;;;72.10;68.10;;;;;;;;;;10293009;28;20048;-72
2022/10/01 13:51:11;;;;;;;84.05;79.50;;;;;;;;;;10285607;28;20103;-73
2022/10/01 13:56:13;;;;;;;87.95;83.25;;;;;;;;;;10271842;28;20067;-72
2022/10/01 14:01:15;;;;;;;97.40;92.20;;;;;;;;;;10276329;28;20554;-72
2022/10/01 14:06:29;;;;;;;99.15;93.70;;;;;;;;;;10273794;28;20072;-72
2022/10/01 14:16:44;;;;;;;105.18;99.35;;;;;;;;;;10284013;28;20048;-72
2022/10/01 14:21:50;;;;;;;117.80;111.28;;;;;;;;;;10259068;28;20041;-71
2022/10/01 14:26:56;;;;;;;123.22;116.68;;;;;;;;;;10266174;28;20045;-71
2022/10/01 14:31:55;;;;;;;105.70;99.97;;;;;;;;;;10281026;28;20109;-72
2022/10/01 14:36:52;;;;;;;105.57;100.00;;;;;;;;;;10261304;28;20042;-74
2022/10/01 14:41:50;;;;;;;101.57;96.25;;;;;;;;;;10227603;28;20057;-73
2022/10/01 14:46:47;;;;;;;101.97;96.68;;;;;;;;;;10234553;28;20037;-73
2022/10/01 14:51:51;;;;;;;85.28;80.90;;;;;;;;;;10241499;28;20057;-73
2022/10/01 14:56:48;;;;;;;78.47;74.40;;;;;;;;;;10237527;28;20387;-74
2022/10/01 15:01:52;;;;;;;51.42;48.58;;;;;;;;;;10236037;28;20068;-73
2022/10/01 15:06:49;;;;;;;36.85;34.47;;;;;;;;;;10237938;28;20042;-73
2022/10/01 15:11:47;;;;;;;32.67;30.77;;;;;;;;;;10238642;28;20041;-74
2022/10/01 15:16:43;;;;;;;31.48;29.63;;;;;;;;;;10236447;28;20047;-73
2022/10/01 15:21:51;;;;;;;30.77;28.63;;;;;;;;;;10224868;28;20463;-73
2022/10/01 15:26:48;;;;;;;48.72;45.95;;;;;;;;;;10234487;28;20049;-74
2022/10/01 15:31:45;;;;;;;40.20;37.90;;;;;;;;;;10242937;28;20048;-73
2022/10/01 15:36:42;;;;;;;44.90;42.03;;;;;;;;;;10240227;28;20443;-73
2022/10/01 15:41:39;;;;;;;53.67;50.47;;;;;;;;;;10231469;28;20495;-73
2022/10/01 15:46:35;;;;;;;61.65;57.97;;;;;;;;;;10227997;28;20049;-72
2022/10/01 15:51:32;;;;;;;68.32;64.72;;;;;;;;;;10226608;28;20527;-73
2022/10/01 15:56:29;;;;;;;73.65;69.85;;;;;;;;;;10229886;28;20052;-72
2022/10/01 16:01:26;;;;;;;77.82;73.25;;;;;;;;;;10233539;28;20042;-72
2022/10/01 16:06:25;;;;;;;90.32;85.38;;;;;;;;;;10236957;28;20041;-73
2022/10/01 16:11:23;;;;;;;99.47;94.38;;;;;;;;;;10222048;28;20500;-72
2022/10/01 16:16:21;;;;;;;98.53;93.22;;;;;;;;;;10224955;28;20411;-72
2022/10/01 16:21:18;;;;;;;96.80;91.70;;;;;;;;;;10230359;28;20075;-72
2022/10/01 16:26:28;;;;;;;104.82;98.95;;;;;;;;;;10232409;28;20054;-72
2022/10/01 16:31:24;;;;;;;103.63;97.93;;;;;;;;;;10227451;28;20056;-72
2022/10/01 16:36:23;;;;;;;106.95;101.20;;;;;;;;;;10230276;28;20554;-72
2022/10/01 16:41:21;;;;;;;102.90;97.60;;;;;;;;;;10229739;28;20048;-72
2022/10/01 16:46:17;;;;;;;104.93;99.55;;;;;;;;;;10228337;28;20042;-72
2022/10/01 16:51:13;;;;;;;109.95;103.82;;;;;;;;;;10234471;28;20053;-72
2022/10/01 16:56:10;;;;;;;102.88;97.32;;;;;;;;;;10225480;28;20045;-71
2022/10/01 17:01:07;;;;;;;100.90;95.63;;;;;;;;;;10222536;28;20046;-72
2022/10/01 17:06:04;;;;;;;90.50;85.72;;;;;;;;;;10224917;28;20095;-71
2022/10/01 17:11:01;;;;;;;102.53;96.57;;;;;;;;;;10232959;28;20041;-71
2022/10/01 17:15:58;;;;;;;100.90;95.40;;;;;;;;;;10234735;28;20045;-72
2022/10/01 17:20:55;;;;;;;93.80;88.68;;;;;;;;;;10229965;28;20107;-72
2022/10/01 17:25:51;;;;;;;92.65;87.75;;;;;;;;;;10230338;28;20053;-71
2022/10/01 17:30:48;;;;;;;99.68;93.90;;;;;;;;;;10227364;28;20037;-71
2022/10/01 17:35:45;;;;;;;106.93;100.63;;;;;;;;;;10227780;28;20128;-71
2022/10/01 17:40:44;;;;;;;109.18;102.72;;;;;;;;;;10227205;28;20041;-72
2022/10/01 17:45:40;;;;;;;112.18;105.57;;;;;;;;;;10226911;28;20423;-72
2022/10/01 17:50:42;;;;;;;111.20;104.93;;;;;;;;;;10231862;28;20083;-72
2022/10/01 17:55:39;;;;;;;120.72;113.90;;;;;;;;;;10235090;28;20462;-72
2022/10/01 18:00:35;;;;;;;117.03;109.80;;;;;;;;;;10237763;28;20127;-72
2022/10/01 18:05:32;;;;;;;118.13;111.38;;;;;;;;;;10234929;28;20499;-72
2022/10/01 18:10:28;;;;;;;125.13;118.03;;;;;;;;;;10229072;28;20162;-72
2022/10/01 18:15:24;;;;;;;114.93;108.50;;;;;;;;;;10232855;28;20133;-71
2022/10/01 18:20:22;;;;;;;121.90;114.45;;;;;;;;;;10232959;28;20064;-72
2022/10/01 18:25:18;;;;;;;123.47;115.90;;;;;;;;;;10239834;28;20550;-72
2022/10/01 18:30:15;;;;;;;122.47;115.55;;;;;;;;;;10221529;28;20060;-72
2022/10/01 18:35:16;;;;;;;128.15;120.55;;;;;;;;;;10231186;28;20136;-71
2022/10/01 18:40:25;;;;;;;124.60;117.53;;;;;;;;;;10231529;28;20042;-72
2022/10/01 18:45:33;;;;;;;129.38;121.35;;;;;;;;;;10227987;28;20049;-72
2022/10/01 18:50:38;;;;;;;117.72;111.13;;;;;;;;;;10220914;28;20449;-72
2022/10/01 18:55:47;;;;;;;112.15;105.00;;;;;;;;;;10226825;28;20155;-72
2022/10/01 19:00:54;;;;;;;111.35;104.35;;;;;;;;;;10226117;28;20049;-72
2022/10/01 19:05:56;;;;;;;105.68;99.38;;;;;;;;;;10229223;28;20050;-72
2022/10/01 19:11:13;;;;;;;104.27;98.00;;;;;;;;;;10222814;28;20041;-72
2022/10/01 19:16:19;;;;;;;102.35;95.43;;;;;;;;;;10231687;28;20409;-72
2022/10/01 19:21:15;;;;;;;100.88;94.63;;;;;;;;;;10235669;28;20038;-72
2022/10/01 19:26:22;;;;;;;101.38;94.90;;;;;;;;;;10240996;28;20060;-72
2022/10/01 19:31:23;;;;;;;105.18;99.05;;;;;;;;;;10231213;28;20052;-72
2022/10/01 19:36:35;;;;;;;108.72;101.90;;;;;;;;;;10235054;28;20393;-72
2022/10/01 19:41:37;;;;;;;107.20;100.75;;;;;;;;;;10227126;28;20137;-71
2022/10/01 19:46:44;;;;;;;101.30;94.72;;;;;;;;;;10232019;28;20049;-72
2022/10/01 19:51:50;;;;;;;104.18;97.05;;;;;;;;;;10240071;28;20515;-72
2022/10/01 19:56:50;;;;;;;102.07;95.47;;;;;;;;;;10229601;28;20427;-71
2022/10/01 20:01:47;;;;;;;101.68;95.57;;;;;;;;;;10232325;28;20526;-72
2022/10/01 20:06:45;;;;;;;103.28;96.30;;;;;;;;;;10236137;28;20084;-72
2022/10/01 20:11:57;;;;;;;94.22;88.22;;;;;;;;;;10226719;28;20057;-72
2022/10/01 20:16:53;;;;;;;93.55;88.07;;;;;;;;;;10240650;28;20427;-72
2022/10/01 20:21:55;;;;;;;99.38;93.40;;;;;;;;;;10224926;28;20038;-72
2022/10/01 20:26:58;;;;;;;102.65;96.50;;;;;;;;;;10230001;28;20052;-72
2022/10/01 20:32:13;;;;;;;96.47;90.57;;;;;;;;;;10233215;28;20415;-72
2022/10/01 20:37:33;;;;;;;95.78;89.85;;;;;;;;;;10224717;28;20046;-72
2022/10/01 20:42:34;;;;;;;95.85;90.28;;;;;;;;;;10236842;28;20551;-72
2022/10/01 20:47:35;;;;;;;93.82;88.30;;;;;;;;;;10230495;28;20132;-72
2022/10/01 20:52:43;;;;;;;90.00;84.82;;;;;;;;;;10231902;28;20071;-71
2022/10/01 20:57:48;;;;;;;92.40;87.15;;;;;;;;;;10224488;28;20041;-72
2022/10/01 21:02:49;;;;;;;84.50;79.22;;;;;;;;;;10236554;28;20046;-71
2022/10/01 21:07:47;;;;;;;94.05;88.75;;;;;;;;;;10234766;28;20050;-72
2022/10/01 21:12:48;;;;;;;84.65;79.85;;;;;;;;;;10225113;28;20081;-71
2022/10/01 21:17:55;;;;;;;90.22;85.25;;;;;;;;;;10232482;28;20418;-71
2022/10/01 21:23:10;;;;;;;97.22;91.75;;;;;;;;;;10229538;28;20045;-72
2022/10/01 21:28:24;;;;;;;97.85;91.72;;;;;;;;;;10230859;28;20060;-72
2022/10/01 21:33:25;;;;;;;94.32;88.72;;;;;;;;;;10225199;28;20049;-72
2022/10/01 21:38:28;;;;;;;92.50;87.00;;;;;;;;;;10221938;28;20045;-72
2022/10/01 21:43:27;;;;;;;98.90;93.15;;;;;;;;;;10226026;28;20450;-72
2022/10/01 21:48:24;;;;;;;99.72;93.85;;;;;;;;;;10227299;28;20055;-72
2022/10/01 21:53:40;;;;;;;102.55;96.68;;;;;;;;;;10232786;28;20044;-72
2022/10/01 21:58:59;;;;;;;107.10;100.82;;;;;;;;;;10226158;28;20048;-72
2022/10/01 22:04:02;;;;;;;105.50;99.30;;;;;;;;;;10226385;28;20068;-71
2022/10/01 22:09:10;;;;;;;102.90;97.05;;;;;;;;;;10228306;28;20487;-71
2022/10/01 22:14:15;;;;;;;104.80;98.80;;;;;;;;;;10223305;28;20522;-72
2022/10/01 22:19:13;;;;;;;110.80;103.93;;;;;;;;;;10228092;28;20045;-72
2022/10/01 22:24:12;;;;;;;103.35;97.30;;;;;;;;;;10226861;28;20810;-72
2022/10/01 22:29:12;;;;;;;98.15;92.22;;;;;;;;;;10226509;28;20629;-72
2022/10/01 22:34:13;;;;;;;95.75;90.38;;;;;;;;;;10230769;28;20049;-72
2022/10/01 22:39:15;;;;;;;101.28;95.03;;;;;;;;;;10230672;28;20068;-72
2022/10/01 22:44:12;;;;;;;96.68;90.97;;;;;;;;;;10232352;28;20530;-71
2022/10/01 22:49:17;;;;;;;91.90;86.68;;;;;;;;;;10229287;28;20052;-71
2022/10/01 22:54:30;;;;;;;93.05;87.85;;;;;;;;;;10232019;28;20052;-71
2022/10/01 22:59:26;;;;;;;93.13;87.65;;;;;;;;;;10234312;28;20136;-71
2022/10/01 23:04:32;;;;;;;89.43;84.10;;;;;;;;;;10236561;28;20037;-71
2022/10/01 23:09:33;;;;;;;97.28;91.57;;;;;;;;;;10237926;28;20041;-72
2022/10/01 23:14:45;;;;;;;94.47;88.78;;;;;;;;;;10228636;28;20037;-72
2022/10/01 23:19:49;;;;;;;97.53;91.53;;;;;;;;;;10234790;28;20161;-71
2022/10/01 23:25:04;;;;;;;98.40;92.20;;;;;;;;;;10233966;28;20626;-71
2022/10/01 23:30:10;;;;;;;93.30;87.38;;;;;;;;;;10234330;28;20049;-72
2022/10/01 23:35:16;;;;;;;99.18;92.88;;;;;;;;;;10229502;28;20053;-71
2022/10/01 23:40:17;;;;;;;96.13;90.15;;;;;;;;;;10229684;28;20049;-71
2022/10/01 23:45:33;;;;;;;101.50;95.35;;;;;;;;;;10241647;28;20041;-71
2022/10/01 23:50:39;;;;;;;108.53;101.53;;;;;;;;;;10230863;28;20406;-72
